Time,TemperatureF,DewpointF,PressureIn,WindDirection,WindDirectionDegrees,WindSpeedMPH,WindSpeedGustMPH,Humidity,HourlyPrecipIn,Conditions,Clouds,dailyrainin,SoftwareType,DateUTC
2013-05-23 00:00:00,70.0,63.0,29.88,SSW,197,0.0,9.0,78,-99.99,,,-99.99,,2013-05-23 04:00:00,
2013-05-23 00:23:00,70.0,63.0,29.88,SSW,197,0.0,9.0,78,-99.99,,,-99.99,,2013-05-23 04:23:00,
2013-05-23 00:33:00,70.0,63.0,29.88,SSW,197,0.0,9.0,78,-99.99,,,-99.99,,2013-05-23 04:33:00,
2013-05-23 00:43:00,70.0,63.0,29.88,SSW,197,0.0,9.0,78,-99.99,,,-99.99,,2013-05-23 04:43:00,
2013-05-23 00:52:00,70.0,63.0,29.88,SSW,197,0.0,9.0,78,-99.99,,,-99.99,,2013-05-23 04:52:00,
2013-05-23 01:00:00,61.0,61.0,29.88,NW,324,0.0,0.0,97,-99.99,,,-99.99,,2013-05-23 05:00:00,
2013-05-23 01:22:00,61.0,61.0,29.88,NW,324,0.0,0.0,97,-99.99,,,-99.99,,2013-05-23 05:22:00,
2013-05-23 01:32:00,61.0,61.0,29.88,NW,324,0.0,0.0,97,-99.99,,,-99.99,,2013-05-23 05:32:00,
2013-05-23 01:43:00,61.0,61.0,29.88,NW,324,0.0,0.0,97,-99.99,,,-99.99,,2013-05-23 05:43:00,
2013-05-23 01:52:00,61.0,61.0,29.88,NW,324,0.0,0.0,97,-99.99,,,-99.99,,2013-05-23 05:52:00,
2013-05-23 02:00:00,58.0,58.0,29.88,SE,129,2.0,2.0,99,-99.99,,,-99.99,,2013-05-23 06:00:00,
2013-05-23 02:32:00,58.0,58.0,29.88,SE,129,2.0,2.0,99,-99.99,,,-99.99,,2013-05-23 06:32:00,
2013-05-23 02:42:00,58.0,58.0,29.88,SE,129,2.0,2.0,99,-99.99,,,-99.99,,2013-05-23 06:42:00,
2013-05-23 02:52:00,58.0,58.0,29.88,SE,129,2.0,2.0,99,-99.99,,,-99.99,,2013-05-23 06:52:00,
2013-05-23 03:00:00,56.0,55.0,29.85,North,6,0.0,3.0,99,-99.99,,,-99.99,,2013-05-23 07:00:00,
2013-05-23 03:22:00,56.0,55.0,29.85,North,6,0.0,3.0,99,-99.99,,,-99.99,,2013-05-23 07:22:00,
2013-05-23 03:32:00,56.0,55.0,29.85,North,6,0.0,3.0,99,-99.99,,,-99.99,,2013-05-23 07:32:00,
2013-05-23 03:42:00,56.0,55.0,29.85,North,6,0.0,3.0,99,-99.99,,,-99.99,,2013-05-23 07:42:00,
2013-05-23 03:59:00,56.0,55.0,29.85,North,6,0.0,3.0,99,-99.99,,,-99.99,,2013-05-23 07:59:00,
2013-05-23 04:00:00,55.0,55.0,29.85,SSW,201,0.0,0.0,100,-99.99,,,-99.99,,2013-05-23 08:00:00,
2013-05-23 04:22:00,55.0,55.0,29.85,SSW,201,0.0,0.0,100,-99.99,,,-99.99,,2013-05-23 08:22:00,
2013-05-23 04:32:00,55.0,55.0,29.85,SSW,201,0.0,0.0,100,-99.99,,,-99.99,,2013-05-23 08:32:00,
2013-05-23 04:42:00,55.0,55.0,29.85,SSW,201,0.0,0.0,100,-99.99,,,-99.99,,2013-05-23 08:42:00,
2013-05-23 04:52:00,55.0,55.0,29.85,SSW,201,0.0,0.0,100,-99.99,,,-99.99,,2013-05-23 08:52:00,
2013-05-23 05:00:00,55.0,55.0,29.88,NW,322,0.0,2.0,100,-99.99,,,-99.99,,2013-05-23 09:00:00,
2013-05-23 05:33:00,55.0,55.0,29.88,NW,322,0.0,2.0,100,-99.99,,,-99.99,,2013-05-23 09:33:00,
2013-05-23 05:42:00,55.0,55.0,29.88,NW,322,0.0,2.0,100,-99.99,,,-99.99,,2013-05-23 09:42:00,
2013-05-23 05:53:00,55.0,55.0,29.88,NW,322,0.0,2.0,100,-99.99,,,-99.99,,2013-05-23 09:53:00,
2013-05-23 06:00:00,59.0,59.0,29.88,SW,233,1.0,6.0,100,-99.99,,,-99.99,,2013-05-23 10:00:00,
2013-05-23 06:22:00,59.0,59.0,29.88,SW,233,1.0,6.0,100,-99.99,,,-99.99,,2013-05-23 10:22:00,
2013-05-23 06:32:00,59.0,59.0,29.88,SW,233,1.0,6.0,100,-99.99,,,-99.99,,2013-05-23 10:32:00,
2013-05-23 06:42:00,59.0,59.0,29.88,SW,233,1.0,6.0,100,-99.99,,,-99.99,,2013-05-23 10:42:00,
2013-05-23 06:52:00,59.0,59.0,29.88,SW,233,1.0,6.0,100,-99.99,,,-99.99,,2013-05-23 10:52:00,
2013-05-23 07:00:00,62.0,60.0,29.88,SSW,210,5.0,7.0,92,-99.99,,,-99.99,,2013-05-23 11:00:00,
2013-05-23 07:22:00,62.0,60.0,29.88,SSW,210,5.0,7.0,92,-99.99,,,-99.99,,2013-05-23 11:22:00,
2013-05-23 07:32:00,62.0,60.0,29.88,SSW,210,5.0,7.0,92,-99.99,,,-99.99,,2013-05-23 11:32:00,
2013-05-23 07:42:00,62.0,60.0,29.88,SSW,210,5.0,7.0,92,-99.99,,,-99.99,,2013-05-23 11:42:00,
2013-05-23 07:52:00,62.0,60.0,29.88,SSW,210,5.0,7.0,92,-99.99,,,-99.99,,2013-05-23 11:52:00,
2013-05-23 08:00:00,62.0,60.0,29.91,SW,222,2.0,10.0,94,-99.99,,,-99.99,,2013-05-23 12:00:00,
2013-05-23 08:22:00,62.0,60.0,29.91,SW,222,2.0,10.0,94,-99.99,,,-99.99,,2013-05-23 12:22:00,
2013-05-23 08:32:00,62.0,60.0,29.91,SW,222,2.0,10.0,94,-99.99,,,-99.99,,2013-05-23 12:32:00,
2013-05-23 08:42:00,62.0,60.0,29.91,SW,222,2.0,10.0,94,-99.99,,,-99.99,,2013-05-23 12:42:00,
2013-05-23 08:52:00,62.0,60.0,29.91,SW,222,2.0,10.0,94,-99.99,,,-99.99,,2013-05-23 12:52:00,
2013-05-23 09:00:00,63.0,61.0,29.88,WSW,247,0.0,9.0,92,-99.99,,,-99.99,,2013-05-23 13:00:00,
2013-05-23 09:22:00,63.0,61.0,29.88,WSW,247,0.0,9.0,92,-99.99,,,-99.99,,2013-05-23 13:22:00,
2013-05-23 09:32:00,63.0,61.0,29.88,WSW,247,0.0,9.0,92,-99.99,,,-99.99,,2013-05-23 13:32:00,
2013-05-23 09:42:00,63.0,61.0,29.88,WSW,247,0.0,9.0,92,-99.99,,,-99.99,,2013-05-23 13:42:00,
2013-05-23 09:52:00,63.0,61.0,29.88,WSW,247,0.0,9.0,92,-99.99,,,-99.99,,2013-05-23 13:52:00,
2013-05-23 10:00:00,64.0,61.0,29.88,SW,228,5.0,11.0,90,-99.99,,,-99.99,,2013-05-23 14:00:00,
2013-05-23 10:22:00,64.0,61.0,29.88,SW,228,5.0,11.0,90,-99.99,,,-99.99,,2013-05-23 14:22:00,
2013-05-23 10:32:00,64.0,61.0,29.88,SW,228,5.0,11.0,90,-99.99,,,-99.99,,2013-05-23 14:32:00,
2013-05-23 10:42:00,64.0,61.0,29.88,SW,228,5.0,11.0,90,-99.99,,,-99.99,,2013-05-23 14:42:00,
2013-05-23 10:52:00,64.0,61.0,29.88,SW,228,5.0,11.0,90,-99.99,,,-99.99,,2013-05-23 14:52:00,
2013-05-23 11:00:00,67.0,62.0,29.88,SSW,196,4.0,9.0,85,-99.99,,,-99.99,,2013-05-23 15:00:00,
2013-05-23 11:22:00,67.0,62.0,29.88,SSW,196,4.0,9.0,85,-99.99,,,-99.99,,2013-05-23 15:22:00,
2013-05-23 11:33:00,67.0,62.0,29.88,SSW,196,4.0,9.0,85,-99.99,,,-99.99,,2013-05-23 15:33:00,
2013-05-23 11:43:00,67.0,62.0,29.88,SSW,196,4.0,9.0,85,-99.99,,,-99.99,,2013-05-23 15:43:00,
2013-05-23 11:53:00,67.0,62.0,29.88,SSW,196,4.0,9.0,85,-99.99,,,-99.99,,2013-05-23 15:53:00,
2013-05-23 12:00:00,61.0,60.0,29.88,SW,236,2.0,17.0,94,-99.99,,,-99.99,,2013-05-23 16:00:00,
2013-05-23 12:23:00,61.0,60.0,29.88,SW,236,2.0,17.0,94,-99.99,,,-99.99,,2013-05-23 16:23:00,
2013-05-23 12:34:00,61.0,60.0,29.88,SW,236,2.0,17.0,94,-99.99,,,-99.99,,2013-05-23 16:34:00,
2013-05-23 12:43:00,61.0,60.0,29.88,SW,236,2.0,17.0,94,-99.99,,,-99.99,,2013-05-23 16:43:00,
2013-05-23 12:53:00,61.0,60.0,29.88,SW,236,2.0,17.0,94,-99.99,,,-99.99,,2013-05-23 16:53:00,
2013-05-23 13:00:00,64.0,61.0,29.85,South,177,1.0,17.0,87,-99.99,,,-99.99,,2013-05-23 17:00:00,
2013-05-23 13:23:00,64.0,61.0,29.85,South,177,1.0,17.0,87,-99.99,,,-99.99,,2013-05-23 17:23:00,
2013-05-23 13:33:00,64.0,61.0,29.85,South,177,1.0,17.0,87,-99.99,,,-99.99,,2013-05-23 17:33:00,
2013-05-23 13:43:00,64.0,61.0,29.85,South,177,1.0,17.0,87,-99.99,,,-99.99,,2013-05-23 17:43:00,
2013-05-23 13:53:00,64.0,61.0,29.85,South,177,1.0,17.0,87,-99.99,,,-99.99,,2013-05-23 17:53:00,
2013-05-23 14:00:00,70.0,63.0,29.83,WSW,239,5.0,12.0,79,-99.99,,,-99.99,,2013-05-23 18:00:00,
2013-05-23 14:32:00,70.0,63.0,29.83,WSW,239,5.0,12.0,79,-99.99,,,-99.99,,2013-05-23 18:32:00,
2013-05-23 14:42:00,70.0,63.0,29.83,WSW,239,5.0,12.0,79,-99.99,,,-99.99,,2013-05-23 18:42:00,
2013-05-23 14:52:00,70.0,63.0,29.83,WSW,239,5.0,12.0,79,-99.99,,,-99.99,,2013-05-23 18:52:00,
2013-05-23 15:00:00,71.0,62.0,29.83,SSW,201,6.0,15.0,75,-99.99,,,-99.99,,2013-05-23 19:00:00,
2013-05-23 15:22:00,71.0,62.0,29.83,SSW,201,6.0,15.0,75,-99.99,,,-99.99,,2013-05-23 19:22:00,
2013-05-23 15:32:00,71.0,62.0,29.83,SSW,201,6.0,15.0,75,-99.99,,,-99.99,,2013-05-23 19:32:00,
2013-05-23 15:42:00,71.0,62.0,29.83,SSW,201,6.0,15.0,75,-99.99,,,-99.99,,2013-05-23 19:42:00,
2013-05-23 15:52:00,71.0,62.0,29.83,SSW,201,6.0,15.0,75,-99.99,,,-99.99,,2013-05-23 19:52:00,
2013-05-23 16:00:00,65.0,60.0,29.83,SW,232,8.0,20.0,83,-99.99,,,-99.99,,2013-05-23 20:00:00,
2013-05-23 16:22:00,65.0,60.0,29.83,SW,232,8.0,20.0,83,-99.99,,,-99.99,,2013-05-23 20:22:00,
2013-05-23 16:32:00,65.0,60.0,29.83,SW,232,8.0,20.0,83,-99.99,,,-99.99,,2013-05-23 20:32:00,
2013-05-23 16:42:00,65.0,60.0,29.83,SW,232,8.0,20.0,83,-99.99,,,-99.99,,2013-05-23 20:42:00,
2013-05-23 16:52:00,65.0,60.0,29.83,SW,232,8.0,20.0,83,-99.99,,,-99.99,,2013-05-23 20:52:00,
2013-05-23 17:00:00,67.0,61.0,29.80,East,90,0.0,10.0,83,-99.99,,,-99.99,,2013-05-23 21:00:00,
2013-05-23 17:33:00,67.0,61.0,29.80,East,90,0.0,10.0,83,-99.99,,,-99.99,,2013-05-23 21:33:00,
2013-05-23 17:43:00,67.0,61.0,29.80,East,90,0.0,10.0,83,-99.99,,,-99.99,,2013-05-23 21:43:00,
2013-05-23 17:53:00,67.0,61.0,29.80,East,90,0.0,10.0,83,-99.99,,,-99.99,,2013-05-23 21:53:00,
2013-05-23 18:00:00,66.0,62.0,29.80,West,259,3.0,9.0,87,-99.99,,,-99.99,,2013-05-23 22:00:00,
2013-05-23 18:33:00,66.0,62.0,29.80,West,259,3.0,9.0,87,-99.99,,,-99.99,,2013-05-23 22:33:00,
2013-05-23 18:42:00,66.0,62.0,29.80,West,259,3.0,9.0,87,-99.99,,,-99.99,,2013-05-23 22:42:00,
2013-05-23 18:52:00,66.0,62.0,29.80,West,259,3.0,9.0,87,-99.99,,,-99.99,,2013-05-23 22:52:00,
2013-05-23 19:00:00,65.0,63.0,29.80,South,186,2.0,8.0,93,-99.99,,,-99.99,,2013-05-23 23:00:00,
2013-05-23 19:32:00,65.0,63.0,29.80,South,186,2.0,8.0,93,-99.99,,,-99.99,,2013-05-23 23:32:00,
2013-05-23 19:42:00,65.0,63.0,29.80,South,186,2.0,8.0,93,-99.99,,,-99.99,,2013-05-23 23:42:00,
2013-05-23 19:52:00,65.0,63.0,29.80,South,186,2.0,8.0,93,-99.99,,,-99.99,,2013-05-23 23:52:00,
2013-05-23 20:00:00,63.0,61.0,29.80,SSE,147,4.0,13.0,95,-99.99,,,-99.99,,2013-05-24 00:00:00,
2013-05-23 20:32:00,63.0,61.0,29.80,SSE,147,4.0,13.0,95,-99.99,,,-99.99,,2013-05-24 00:32:00,
2013-05-23 20:42:00,63.0,61.0,29.80,SSE,147,4.0,13.0,95,-99.99,,,-99.99,,2013-05-24 00:42:00,
2013-05-23 20:52:00,63.0,61.0,29.80,SSE,147,4.0,13.0,95,-99.99,,,-99.99,,2013-05-24 00:52:00,
2013-05-23 21:00:00,60.0,59.0,29.80,South,182,0.0,10.0,97,-99.99,,,-99.99,,2013-05-24 01:00:00,
2013-05-23 21:22:00,60.0,59.0,29.80,South,182,0.0,10.0,97,-99.99,,,-99.99,,2013-05-24 01:22:00,
2013-05-23 21:32:00,60.0,59.0,29.80,South,182,0.0,10.0,97,-99.99,,,-99.99,,2013-05-24 01:32:00,
2013-05-23 21:42:00,60.0,59.0,29.80,South,182,0.0,10.0,97,-99.99,,,-99.99,,2013-05-24 01:42:00,
2013-05-23 21:52:00,60.0,59.0,29.80,South,182,0.0,10.0,97,-99.99,,,-99.99,,2013-05-24 01:52:00,
2013-05-23 22:00:00,60.0,59.0,29.77,SSE,147,2.0,5.0,99,-99.99,,,-99.99,,2013-05-24 02:00:00,
2013-05-23 22:32:00,60.0,59.0,29.77,SSE,147,2.0,5.0,99,-99.99,,,-99.99,,2013-05-24 02:32:00,
2013-05-23 22:42:00,60.0,59.0,29.77,SSE,147,2.0,5.0,99,-99.99,,,-99.99,,2013-05-24 02:42:00,
2013-05-23 22:52:00,60.0,59.0,29.77,SSE,147,2.0,5.0,99,-99.99,,,-99.99,,2013-05-24 02:52:00,
2013-05-23 23:00:00,61.0,60.0,29.77,WSW,238,5.0,8.0,96,-99.99,,,-99.99,,2013-05-24 03:00:00,
2013-05-23 23:22:00,61.0,60.0,29.77,WSW,238,5.0,8.0,96,-99.99,,,-99.99,,2013-05-24 03:22:00,
2013-05-23 23:33:00,61.0,60.0,29.77,WSW,238,5.0,8.0,96,-99.99,,,-99.99,,2013-05-24 03:33:00,
2013-05-23 23:42:00,61.0,60.0,29.77,WSW,238,5.0,8.0,96,-99.99,,,-99.99,,2013-05-24 03:42:00,
2013-05-23 23:53:00,61.0,60.0,29.77,WSW,238,5.0,8.0,96,-99.99,,,-99.99,,2013-05-24 03:53:00,